Time,TemperatureF,DewpointF,PressureIn,WindDirection,WindDirectionDegrees,WindSpeedMPH,WindSpeedGustMPH,Humidity,HourlyPrecipIn,Conditions,Clouds,dailyrainin,SolarRadiationWatts/m^2,SoftwareType,DateUTC
2013-12-30 00:00:00,43.1,42.3,29.95,WNW,290,1.0,2.0,97,0.00,,CLR,0.00,0.00,VWS V15.00,2013-12-30 05:00:00,
2013-12-30 00:01:00,43.2,42.4,29.95,West,267,1.0,2.0,97,0.00,,CLR,0.00,0.00,VWS V14.01,2013-12-30 05:01:00,
2013-12-30 00:02:00,43.2,42.4,29.96,West,267,1.0,2.0,97,0.00,,CLR,0.00,0.00,VWS V14.01,2013-12-30 05:02:00,
2013-12-30 00:03:00,43.3,42.5,29.95,West,267,1.0,2.0,97,0.00,,CLR,0.00,0.00,VWS V14.01,2013-12-30 05:03:00,
2013-12-30 00:05:00,43.4,42.6,29.95,West,267,1.0,2.0,97,0.00,,CLR,0.00,0.00,VWS V14.01,2013-12-30 05:05:00,
2013-12-30 00:10:00,43.6,42.8,29.96,West,267,0.0,2.0,97,0.00,,CLR,0.00,0.00,VWS V14.01,2013-12-30 05:10:00,
2013-12-30 00:15:00,43.4,42.6,29.96,WSW,256,0.0,2.0,97,0.00,,CLR,0.00,0.00,VWS V14.01,2013-12-30 05:15:00,
2013-12-30 00:20:00,43.1,42.3,29.95,WSW,256,0.0,2.0,97,0.00,,,0.00,0.00,VWS V14.01,2013-12-30 05:20:00,
2013-12-30 00:25:00,43.2,42.4,29.95,WSW,252,1.0,2.0,97,0.00,,,0.00,0.00,VWS V14.01,2013-12-30 05:25:00,
2013-12-30 00:30:00,43.3,42.5,29.96,West,261,2.0,2.0,97,0.00,,,0.00,0.00,VWS V14.01,2013-12-30 05:30:00,
2013-12-30 00:35:00,43.1,42.3,29.96,West,264,0.0,2.0,97,0.00,,,0.00,0.00,VWS V14.01,2013-12-30 05:35:00,
2013-12-30 00:40:00,43.1,42.3,29.96,West,273,1.0,2.0,97,0.00,,,0.00,0.00,VWS V14.01,2013-12-30 05:40:00,
2013-12-30 00:45:00,43.0,42.2,29.95,West,273,1.0,2.0,97,0.00,,,0.00,0.00,VWS V14.01,2013-12-30 05:45:00,
2013-12-30 00:50:00,43.1,42.3,29.95,West,279,1.0,2.0,97,0.00,,,0.00,0.00,VWS V14.01,2013-12-30 05:50:00,
2013-12-30 00:55:00,43.1,42.3,29.95,WNW,290,0.0,2.0,97,0.00,,,0.00,0.00,VWS V14.01,2013-12-30 05:55:00,
2013-12-30 01:00:00,43.2,42.4,29.95,WNW,288,2.0,2.0,97,0.00,,,0.00,0.00,VWS V14.01,2013-12-30 06:00:00,
2013-12-30 01:05:00,43.5,42.7,29.95,WSW,257,2.0,2.0,97,0.00,,,0.00,0.00,VWS V14.01,2013-12-30 06:05:00,
2013-12-30 01:10:00,43.3,42.8,29.95,WSW,257,1.0,2.0,98,0.00,,,0.00,0.00,VWS V14.01,2013-12-30 06:10:00,
2013-12-30 01:15:00,43.2,42.4,29.95,WSW,257,0.0,2.0,97,0.00,,,0.00,0.00,VWS V14.01,2013-12-30 06:15:00,
2013-12-30 01:20:00,41.0,40.2,29.98,WSW,257,1.0,2.0,97,0.00,,CLR,0.00,0.00,VWS V15.00,2013-12-30 06:20:00,
2013-12-30 01:21:00,42.9,42.1,29.95,WSW,257,0.0,2.0,97,0.00,,,0.00,0.00,VWS V14.01,2013-12-30 06:21:00,
2013-12-30 01:25:00,40.7,39.9,29.98,WSW,257,1.0,2.0,97,0.00,,CLR,0.00,0.00,VWS V15.00,2013-12-30 06:25:00,
2013-12-30 01:26:00,42.8,42.0,29.95,WSW,257,1.0,2.0,97,0.00,,,0.00,0.00,VWS V14.01,2013-12-30 06:26:00,
2013-12-30 01:30:00,40.2,39.2,29.98,WSW,257,0.0,2.0,96,0.00,,CLR,0.00,0.00,VWS V15.00,2013-12-30 06:30:00,
2013-12-30 01:31:00,42.8,42.0,29.96,WSW,257,1.0,2.0,97,0.00,,,0.00,0.00,VWS V14.01,2013-12-30 06:31:00,
2013-12-30 01:35:00,40.0,39.2,29.98,WSW,257,0.0,2.0,97,0.00,,CLR,0.00,0.00,VWS V15.00,2013-12-30 06:35:00,
2013-12-30 01:36:00,42.8,42.0,29.96,WSW,257,1.0,2.0,97,0.00,,,0.00,0.00,VWS V14.01,2013-12-30 06:36:00,
2013-12-30 01:40:00,39.9,39.1,29.98,WSW,257,0.0,2.0,97,0.00,,CLR,0.00,0.00,VWS V15.00,2013-12-30 06:40:00,
2013-12-30 01:41:00,42.7,41.9,29.96,WSW,257,2.0,2.0,97,0.00,,,0.00,0.00,VWS V14.01,2013-12-30 06:41:00,
2013-12-30 01:45:00,39.9,39.1,29.98,WSW,257,1.0,2.0,97,0.00,,CLR,0.00,0.00,VWS V15.00,2013-12-30 06:45:00,
2013-12-30 01:46:00,42.5,41.7,29.96,WSW,257,1.0,2.0,97,0.00,,,0.00,0.00,VWS V14.01,2013-12-30 06:46:00,
2013-12-30 01:50:00,40.0,39.2,29.99,WSW,257,1.0,2.0,97,0.00,,CLR,0.00,0.00,VWS V15.00,2013-12-30 06:50:00,
2013-12-30 01:51:00,42.4,41.6,29.96,WSW,257,0.0,2.0,97,0.00,,,0.00,0.00,VWS V14.01,2013-12-30 06:51:00,
2013-12-30 01:55:00,39.7,38.9,29.99,WSW,255,3.0,3.0,97,0.00,,CLR,0.00,0.00,VWS V15.00,2013-12-30 06:55:00,
2013-12-30 01:56:00,42.2,41.4,29.96,WSW,257,0.0,2.0,97,0.00,,,0.00,0.00,VWS V14.01,2013-12-30 06:56:00,
2013-12-30 02:00:00,39.2,38.4,29.99,SW,226,2.0,2.0,97,0.00,,CLR,0.00,0.00,VWS V15.00,2013-12-30 07:00:00,
2013-12-30 02:01:00,41.9,41.1,29.97,WSW,257,0.0,2.0,97,0.00,,,0.00,0.00,VWS V14.01,2013-12-30 07:01:00,
2013-12-30 02:05:00,38.8,38.0,29.99,SW,226,2.0,2.0,97,0.00,,CLR,0.00,0.00,VWS V15.00,2013-12-30 07:05:00,
2013-12-30 02:06:00,41.6,40.8,29.97,WSW,257,0.0,2.0,97,0.00,,,0.00,0.00,VWS V14.01,2013-12-30 07:06:00,
2013-12-30 02:10:00,38.6,37.8,30.00,SW,226,1.0,2.0,97,0.00,,CLR,0.00,0.00,VWS V15.00,2013-12-30 07:10:00,
2013-12-30 02:11:00,41.5,40.7,29.97,WSW,257,0.0,2.0,97,0.00,,,0.00,0.00,VWS V14.01,2013-12-30 07:11:00,
2013-12-30 02:15:00,38.7,37.9,30.00,SW,226,0.0,2.0,97,0.00,,CLR,0.00,0.00,VWS V15.00,2013-12-30 07:15:00,
2013-12-30 02:16:00,41.1,40.3,29.98,WSW,257,0.0,2.0,97,0.00,,,0.00,0.00,VWS V14.01,2013-12-30 07:16:00,
2013-12-30 02:20:00,38.8,38.0,29.99,SW,226,0.0,2.0,97,0.00,,CLR,0.00,0.00,VWS V15.00,2013-12-30 07:20:00,
2013-12-30 02:21:00,40.9,40.1,29.98,WSW,257,0.0,2.0,97,0.00,,,0.00,0.00,VWS V14.01,2013-12-30 07:21:00,
2013-12-30 02:25:00,38.6,37.8,29.99,SW,226,0.0,2.0,97,0.00,,CLR,0.00,0.00,VWS V15.00,2013-12-30 07:25:00,
2013-12-30 02:26:00,40.5,39.7,29.98,WSW,257,1.0,2.0,97,0.00,,FEW001,0.00,0.00,VWS V14.01,2013-12-30 07:26:00,
2013-12-30 02:30:00,38.5,37.7,29.99,SW,226,0.0,2.0,97,0.00,,CLR,0.00,0.00,VWS V15.00,2013-12-30 07:30:00,
2013-12-30 02:31:00,40.1,39.3,29.98,WSW,257,0.0,2.0,97,0.00,,FEW001,0.00,0.00,VWS V14.01,2013-12-30 07:31:00,
2013-12-30 02:35:00,38.3,37.5,30.00,SW,226,0.0,2.0,97,0.00,,CLR,0.00,0.00,VWS V15.00,2013-12-30 07:35:00,
2013-12-30 02:37:00,40.0,39.2,29.98,WSW,257,0.0,2.0,97,0.00,,FEW001,0.00,0.00,VWS V14.01,2013-12-30 07:37:00,
2013-12-30 02:40:00,38.0,37.2,29.99,SW,226,0.0,2.0,97,0.00,,CLR,0.00,0.00,VWS V15.00,2013-12-30 07:40:00,
2013-12-30 02:42:00,39.9,39.1,29.98,WSW,257,1.0,2.0,97,0.00,,,0.00,0.00,VWS V14.01,2013-12-30 07:42:00,
2013-12-30 02:45:00,37.9,37.1,29.99,SW,226,0.0,2.0,97,0.00,,CLR,0.00,0.00,VWS V15.00,2013-12-30 07:45:00,
2013-12-30 02:47:00,39.9,39.1,29.99,WSW,257,1.0,2.0,97,0.00,,,0.00,0.00,VWS V14.01,2013-12-30 07:47:00,
2013-12-30 02:50:00,37.8,37.0,29.99,SW,226,0.0,2.0,97,0.00,,CLR,0.00,0.00,VWS V15.00,2013-12-30 07:50:00,
2013-12-30 02:52:00,39.9,39.1,29.99,WSW,257,1.0,2.0,97,0.00,,,0.00,0.00,VWS V14.01,2013-12-30 07:52:00,
2013-12-30 02:55:00,37.7,36.9,29.99,SW,226,0.0,2.0,97,0.00,,CLR,0.00,0.00,VWS V15.00,2013-12-30 07:55:00,
2013-12-30 02:57:00,39.4,38.6,29.99,SW,228,2.0,2.0,97,0.00,,,0.00,0.00,VWS V14.01,2013-12-30 07:57:00,
2013-12-30 03:00:00,37.9,37.1,29.99,SW,226,0.0,2.0,97,0.00,,CLR,0.00,0.00,VWS V15.00,2013-12-30 08:00:00,
2013-12-30 03:02:00,39.0,38.2,29.99,SW,226,0.0,2.0,97,0.00,,,0.00,0.00,VWS V14.01,2013-12-30 08:02:00,
2013-12-30 03:05:00,37.9,37.1,29.99,SW,226,0.0,2.0,97,0.00,,CLR,0.00,0.00,VWS V15.00,2013-12-30 08:05:00,
2013-12-30 03:07:00,38.7,37.9,30.00,SW,226,1.0,2.0,97,0.00,,,0.00,0.00,VWS V14.01,2013-12-30 08:07:00,
2013-12-30 03:10:00,37.9,37.1,29.99,SW,226,0.0,2.0,97,0.00,,CLR,0.00,0.00,VWS V15.00,2013-12-30 08:10:00,
2013-12-30 03:12:00,38.6,37.8,30.00,SW,226,1.0,2.0,97,0.00,,,0.00,0.00,VWS V14.01,2013-12-30 08:12:00,
2013-12-30 03:15:00,37.9,37.1,29.99,SW,226,0.0,2.0,97,0.00,,CLR,0.00,0.00,VWS V15.00,2013-12-30 08:15:00,
2013-12-30 03:17:00,38.8,38.0,29.99,SW,226,0.0,2.0,97,0.00,,,0.00,0.00,VWS V14.01,2013-12-30 08:17:00,
2013-12-30 03:20:00,37.7,36.9,29.99,SW,226,0.0,2.0,97,0.00,,CLR,0.00,0.00,VWS V15.00,2013-12-30 08:20:00,
2013-12-30 03:22:00,38.7,37.9,29.99,SW,226,0.0,2.0,97,0.00,,,0.00,0.00,VWS V14.01,2013-12-30 08:22:00,
2013-12-30 03:25:00,37.4,36.6,29.99,SW,226,1.0,2.0,97,0.00,,CLR,0.00,0.00,VWS V15.00,2013-12-30 08:25:00,
2013-12-30 03:27:00,38.5,37.7,29.99,SW,226,0.0,2.0,97,0.00,,,0.00,0.00,VWS V14.01,2013-12-30 08:27:00,
2013-12-30 03:30:00,37.0,36.2,29.99,SW,226,0.0,2.0,97,0.00,,CLR,0.00,0.00,VWS V15.00,2013-12-30 08:30:00,
2013-12-30 03:32:00,38.4,37.6,30.00,SW,226,0.0,2.0,97,0.00,,,0.00,0.00,VWS V14.01,2013-12-30 08:32:00,
2013-12-30 03:35:00,36.6,35.8,29.99,SW,226,0.0,2.0,97,0.00,,CLR,0.00,0.00,VWS V15.00,2013-12-30 08:35:00,
2013-12-30 03:37:00,38.1,37.3,30.00,SW,226,0.0,2.0,97,0.00,,,0.00,0.00,VWS V14.01,2013-12-30 08:37:00,
2013-12-30 03:40:00,36.6,35.8,29.99,SW,226,0.0,2.0,97,0.00,,CLR,0.00,0.00,VWS V15.00,2013-12-30 08:40:00,
2013-12-30 03:42:00,37.9,37.1,29.99,SW,226,0.0,2.0,97,0.00,,,0.00,0.00,VWS V14.01,2013-12-30 08:42:00,
2013-12-30 03:45:00,36.4,35.6,29.99,SW,226,1.0,2.0,97,0.00,,CLR,0.00,0.00,VWS V15.00,2013-12-30 08:45:00,
2013-12-30 03:47:00,37.8,37.0,29.99,SW,226,0.0,2.0,97,0.00,,,0.00,0.00,VWS V14.01,2013-12-30 08:47:00,
2013-12-30 03:50:00,36.4,35.6,29.99,SW,226,1.0,2.0,97,0.00,,CLR,0.00,0.00,VWS V15.00,2013-12-30 08:50:00,
2013-12-30 03:52:00,37.7,36.9,29.99,SW,226,0.0,2.0,97,0.00,,,0.00,0.00,VWS V14.01,2013-12-30 08:52:00,
2013-12-30 03:55:00,36.5,35.7,30.00,SW,226,0.0,2.0,97,0.00,,CLR,0.00,0.00,VWS V15.00,2013-12-30 08:55:00,
2013-12-30 03:58:00,37.8,37.0,29.99,SW,226,0.0,2.0,97,0.00,,,0.00,0.00,VWS V14.01,2013-12-30 08:58:00,
2013-12-30 04:00:00,36.5,35.7,30.00,SW,226,1.0,2.0,97,0.00,,CLR,0.00,0.00,VWS V15.00,2013-12-30 09:00:00,
2013-12-30 04:03:00,37.9,37.1,29.99,SW,226,0.0,2.0,97,0.00,,,0.00,0.00,VWS V14.01,2013-12-30 09:03:00,
2013-12-30 04:05:00,36.7,35.9,30.01,SW,226,1.0,2.0,97,0.00,,CLR,0.00,0.00,VWS V15.00,2013-12-30 09:05:00,
2013-12-30 04:08:00,37.9,37.1,29.99,SW,226,0.0,2.0,97,0.00,,,0.00,0.00,VWS V14.01,2013-12-30 09:08:00,
2013-12-30 04:10:00,37.3,36.5,30.01,SW,226,2.0,2.0,97,0.00,,CLR,0.00,0.00,VWS V15.00,2013-12-30 09:10:00,
2013-12-30 04:13:00,37.9,37.1,29.99,SW,226,0.0,2.0,97,0.00,,,0.00,0.00,VWS V14.01,2013-12-30 09:13:00,
2013-12-30 04:15:00,37.8,37.3,30.01,SW,226,1.0,2.0,98,0.00,,CLR,0.00,0.00,VWS V15.00,2013-12-30 09:15:00,
2013-12-30 04:18:00,37.8,37.0,29.99,SW,226,0.0,2.0,97,0.00,,,0.00,0.00,VWS V14.01,2013-12-30 09:18:00,
2013-12-30 04:20:00,37.9,37.4,30.01,SW,226,1.0,2.0,98,0.00,,CLR,0.00,0.00,VWS V15.00,2013-12-30 09:20:00,
2013-12-30 04:23:00,37.5,36.7,29.99,SW,226,1.0,2.0,97,0.00,,,0.00,0.00,VWS V14.01,2013-12-30 09:23:00,
2013-12-30 04:25:00,37.7,37.2,30.01,SW,226,0.0,2.0,98,0.00,,CLR,0.00,0.00,VWS V15.00,2013-12-30 09:25:00,
2013-12-30 04:28:00,37.1,36.3,29.99,SW,226,1.0,2.0,97,0.00,,,0.00,0.00,VWS V14.01,2013-12-30 09:28:00,
2013-12-30 04:30:00,37.3,36.5,30.01,SW,226,0.0,2.0,97,0.00,,CLR,0.00,0.00,VWS V15.00,2013-12-30 09:30:00,
2013-12-30 04:33:00,36.6,35.8,29.99,SW,226,0.0,2.0,97,0.00,,,0.00,0.00,VWS V14.01,2013-12-30 09:33:00,
2013-12-30 04:35:00,36.9,36.1,30.01,SW,226,0.0,2.0,97,0.00,,CLR,0.00,0.00,VWS V15.00,2013-12-30 09:35:00,
2013-12-30 04:38:00,36.7,35.9,29.99,SW,226,0.0,2.0,97,0.00,,,0.00,0.00,VWS V14.01,2013-12-30 09:38:00,
2013-12-30 04:40:00,36.5,35.7,30.01,SW,226,0.0,2.0,97,0.00,,CLR,0.00,0.00,VWS V15.00,2013-12-30 09:40:00,
2013-12-30 04:43:00,36.5,35.7,29.99,SW,226,1.0,2.0,97,0.00,,,0.00,0.00,VWS V14.01,2013-12-30 09:43:00,
2013-12-30 04:45:00,36.2,35.4,30.01,SW,226,0.0,2.0,97,0.00,,CLR,0.00,0.00,VWS V15.00,2013-12-30 09:45:00,
2013-12-30 04:48:00,36.4,35.6,29.99,SW,226,1.0,2.0,97,0.00,,,0.00,0.00,VWS V14.01,2013-12-30 09:48:00,
2013-12-30 04:50:00,36.0,35.2,30.01,SW,226,0.0,2.0,97,0.00,,CLR,0.00,0.00,VWS V15.00,2013-12-30 09:50:00,
2013-12-30 04:53:00,36.5,35.7,30.00,SW,226,0.0,2.0,97,0.00,,,0.00,0.00,VWS V14.01,2013-12-30 09:53:00,
2013-12-30 04:55:00,35.9,35.1,30.01,SW,226,0.0,2.0,97,0.00,,CLR,0.00,0.00,VWS V15.00,2013-12-30 09:55:00,
2013-12-30 04:58:00,36.5,35.7,30.00,SW,226,1.0,2.0,97,0.00,,,0.00,0.00,VWS V14.01,2013-12-30 09:58:00,
2013-12-30 05:00:00,36.0,35.2,30.01,SW,226,0.0,2.0,97,0.00,,CLR,0.00,0.00,VWS V15.00,2013-12-30 10:00:00,
2013-12-30 05:03:00,36.6,35.8,30.01,SW,226,1.0,2.0,97,0.00,,,0.00,0.00,VWS V14.01,2013-12-30 10:03:00,
2013-12-30 05:05:00,36.0,35.2,30.01,SW,226,1.0,2.0,97,0.00,,CLR,0.00,0.00,VWS V15.00,2013-12-30 10:05:00,
2013-12-30 05:08:00,37.2,36.4,30.01,SW,226,2.0,2.0,97,0.00,,,0.00,0.00,VWS V14.01,2013-12-30 10:08:00,
2013-12-30 05:10:00,36.1,35.3,30.01,SW,226,1.0,2.0,97,0.00,,CLR,0.00,0.00,VWS V15.00,2013-12-30 10:10:00,
2013-12-30 05:14:00,37.9,37.4,30.01,SW,226,1.0,2.0,98,0.00,,,0.00,0.00,VWS V14.01,2013-12-30 10:14:00,
2013-12-30 05:15:00,35.9,35.1,30.01,SW,226,0.0,2.0,97,0.00,,CLR,0.00,0.00,VWS V15.00,2013-12-30 10:15:00,
2013-12-30 05:19:00,37.9,37.4,30.01,SW,226,1.0,2.0,98,0.00,,,0.00,0.00,VWS V14.01,2013-12-30 10:19:00,
2013-12-30 05:20:00,35.9,35.1,30.02,SW,226,0.0,2.0,97,0.00,,CLR,0.00,0.00,VWS V15.00,2013-12-30 10:20:00,
2013-12-30 05:24:00,37.7,37.2,30.01,SW,226,1.0,2.0,98,0.00,,,0.00,0.00,VWS V14.01,2013-12-30 10:24:00,
2013-12-30 05:25:00,35.4,34.6,30.02,SW,226,0.0,2.0,97,0.00,,CLR,0.00,0.00,VWS V15.00,2013-12-30 10:25:00,
2013-12-30 05:29:00,37.3,36.5,30.01,SW,226,0.0,2.0,97,0.00,,,0.00,0.00,VWS V14.01,2013-12-30 10:29:00,
2013-12-30 05:30:00,35.2,34.4,30.02,SW,226,0.0,2.0,97,0.00,,CLR,0.00,0.00,VWS V15.00,2013-12-30 10:30:00,
2013-12-30 05:34:00,37.0,36.2,30.01,SW,226,0.0,2.0,97,0.00,,,0.00,0.00,VWS V14.01,2013-12-30 10:34:00,
2013-12-30 05:35:00,35.0,34.2,30.02,SW,226,1.0,2.0,97,0.00,,CLR,0.00,0.00,VWS V15.00,2013-12-30 10:35:00,
2013-12-30 05:39:00,36.6,35.8,30.01,SW,226,0.0,2.0,97,0.00,,,0.00,0.00,VWS V14.01,2013-12-30 10:39:00,
2013-12-30 05:40:00,34.7,33.9,30.03,SW,226,0.0,2.0,97,0.00,,CLR,0.00,0.00,VWS V15.00,2013-12-30 10:40:00,
2013-12-30 05:44:00,36.2,35.4,30.01,SW,226,0.0,2.0,97,0.00,,,0.00,0.00,VWS V14.01,2013-12-30 10:44:00,
2013-12-30 05:45:00,34.7,33.9,30.03,SW,226,0.0,2.0,97,0.00,,CLR,0.00,0.00,VWS V15.00,2013-12-30 10:45:00,
2013-12-30 05:49:00,36.0,35.2,30.01,SW,226,0.0,2.0,97,0.00,,,0.00,0.00,VWS V14.01,2013-12-30 10:49:00,
2013-12-30 05:50:00,34.8,34.0,30.03,SW,226,0.0,2.0,97,0.00,,CLR,0.00,0.00,VWS V15.00,2013-12-30 10:50:00,
2013-12-30 05:54:00,35.9,35.1,30.01,SW,226,0.0,2.0,97,0.00,,,0.00,0.00,VWS V14.01,2013-12-30 10:54:00,
2013-12-30 05:55:00,34.9,34.1,30.03,SW,226,0.0,2.0,97,0.00,,CLR,0.00,0.00,VWS V15.00,2013-12-30 10:55:00,
2013-12-30 05:59:00,35.9,35.1,30.01,SW,226,0.0,2.0,97,0.00,,,0.00,0.00,VWS V14.01,2013-12-30 10:59:00,
2013-12-30 06:00:00,34.9,34.1,30.03,SW,226,0.0,2.0,97,0.00,,CLR,0.00,0.00,VWS V15.00,2013-12-30 11:00:00,
2013-12-30 06:04:00,36.0,35.2,30.01,SW,226,1.0,2.0,97,0.00,,,0.00,0.00,VWS V14.01,2013-12-30 11:04:00,
2013-12-30 06:05:00,34.8,34.0,30.03,SW,226,0.0,2.0,97,0.00,,CLR,0.00,0.00,VWS V15.00,2013-12-30 11:05:00,
2013-12-30 06:09:00,36.1,35.3,30.01,SW,226,1.0,2.0,97,0.00,,,0.00,0.00,VWS V14.01,2013-12-30 11:09:00,
2013-12-30 06:10:00,34.8,34.0,30.04,SW,226,0.0,2.0,97,0.00,,CLR,0.00,0.00,VWS V15.00,2013-12-30 11:10:00,
2013-12-30 06:14:00,35.9,35.1,30.01,SW,226,0.0,2.0,97,0.00,,,0.00,0.00,VWS V14.01,2013-12-30 11:14:00,
2013-12-30 06:15:00,34.8,34.0,30.04,SW,226,0.0,2.0,97,0.00,,CLR,0.00,0.00,VWS V15.00,2013-12-30 11:15:00,
2013-12-30 06:19:00,35.9,35.1,30.02,SW,226,0.0,2.0,97,0.00,,,0.00,0.00,VWS V14.01,2013-12-30 11:19:00,
2013-12-30 06:20:00,34.8,34.3,30.04,SW,226,0.0,2.0,98,0.00,,CLR,0.00,0.00,VWS V15.00,2013-12-30 11:20:00,
2013-12-30 06:24:00,35.4,34.6,30.02,SW,226,0.0,2.0,97,0.00,,,0.00,0.00,VWS V14.01,2013-12-30 11:24:00,
2013-12-30 06:25:00,34.9,34.4,30.04,SW,226,0.0,2.0,98,0.00,,CLR,0.00,0.00,VWS V15.00,2013-12-30 11:25:00,
2013-12-30 06:29:00,35.2,34.4,30.02,SW,226,0.0,2.0,97,0.00,,,0.00,0.00,VWS V14.01,2013-12-30 11:29:00,
2013-12-30 06:30:00,34.7,34.2,30.05,SW,226,1.0,2.0,98,0.00,,CLR,0.00,7.00,VWS V15.00,2013-12-30 11:30:00,
2013-12-30 06:34:00,35.0,34.2,30.02,SW,226,1.0,2.0,97,0.00,,,0.00,0.00,VWS V14.01,2013-12-30 11:34:00,
2013-12-30 06:35:00,34.5,33.7,30.05,SW,226,1.0,2.0,97,0.00,,CLR,0.00,11.00,VWS V15.00,2013-12-30 11:35:00,
2013-12-30 06:39:00,34.7,33.9,30.03,SW,226,0.0,2.0,97,0.00,,,0.00,0.00,VWS V14.01,2013-12-30 11:39:00,
2013-12-30 06:40:00,34.5,33.7,30.05,SW,226,0.0,2.0,97,0.00,,CLR,0.00,16.00,VWS V15.00,2013-12-30 11:40:00,
2013-12-30 06:44:00,34.7,33.9,30.03,SW,226,0.0,2.0,97,0.00,,,0.00,0.00,VWS V14.01,2013-12-30 11:44:00,
2013-12-30 06:45:00,34.6,34.1,30.05,SW,226,0.0,2.0,98,0.00,,CLR,0.00,21.00,VWS V15.00,2013-12-30 11:45:00,
2013-12-30 06:49:00,34.8,34.0,30.03,SW,226,0.0,2.0,97,0.00,,,0.00,0.00,VWS V14.01,2013-12-30 11:49:00,
2013-12-30 06:50:00,34.8,34.3,30.05,SW,226,0.0,2.0,98,0.00,,CLR,0.00,46.00,VWS V15.00,2013-12-30 11:50:00,
2013-12-30 06:54:00,34.9,34.1,30.03,SW,226,0.0,2.0,97,0.00,,,0.00,0.00,VWS V14.01,2013-12-30 11:54:00,
2013-12-30 06:55:00,35.4,34.9,30.05,SW,226,1.0,2.0,98,0.00,,CLR,0.00,56.00,VWS V15.00,2013-12-30 11:55:00,
2013-12-30 06:59:00,34.9,34.1,30.03,SW,226,0.0,2.0,97,0.00,,,0.00,0.00,VWS V14.01,2013-12-30 11:59:00,
2013-12-30 07:00:00,35.3,34.8,30.06,SW,226,0.0,2.0,98,0.00,,CLR,0.00,63.00,VWS V15.00,2013-12-30 12:00:00,
2013-12-30 07:04:00,34.8,34.0,30.03,SW,226,0.0,2.0,97,0.00,,,0.00,0.00,VWS V14.01,2013-12-30 12:04:00,
2013-12-30 07:05:00,35.3,34.8,30.06,SW,226,0.0,2.0,98,0.00,,CLR,0.00,86.00,VWS V15.00,2013-12-30 12:05:00,
2013-12-30 07:09:00,34.8,34.0,30.04,SW,226,0.0,2.0,97,0.00,,,0.00,0.00,VWS V14.01,2013-12-30 12:09:00,
2013-12-30 07:10:00,35.4,34.6,30.06,SW,226,0.0,2.0,97,0.00,,CLR,0.00,79.00,VWS V15.00,2013-12-30 12:10:00,
2013-12-30 07:14:00,34.8,34.0,30.04,SW,226,0.0,2.0,97,0.00,,,0.00,0.00,VWS V14.01,2013-12-30 12:14:00,
2013-12-30 07:15:00,35.6,34.8,30.06,SW,226,1.0,2.0,97,0.00,,CLR,0.00,123.00,VWS V15.00,2013-12-30 12:15:00,
2013-12-30 07:19:00,34.8,34.3,30.04,SW,226,0.0,2.0,98,0.00,,,0.00,0.00,VWS V14.01,2013-12-30 12:19:00,
2013-12-30 07:20:00,36.3,35.5,30.05,SW,226,0.0,2.0,97,0.00,,CLR,0.00,107.00,VWS V15.00,2013-12-30 12:20:00,
2013-12-30 07:25:00,34.9,34.4,30.04,SW,226,0.0,2.0,98,0.00,,,0.00,0.00,VWS V14.01,2013-12-30 12:25:00,
2013-12-30 07:30:00,34.7,33.9,30.05,SW,226,1.0,2.0,97,0.00,,,0.00,7.00,VWS V14.01,2013-12-30 12:30:00,
2013-12-30 07:35:00,34.5,33.7,30.05,SW,226,1.0,2.0,97,0.00,,,0.00,11.00,VWS V14.01,2013-12-30 12:35:00,
2013-12-30 07:40:00,34.5,33.7,30.05,SW,226,0.0,2.0,97,0.00,,,0.00,16.00,VWS V14.01,2013-12-30 12:40:00,
2013-12-30 07:45:00,34.6,34.1,30.05,SW,226,0.0,2.0,98,0.00,,,0.00,21.00,VWS V14.01,2013-12-30 12:45:00,
2013-12-30 07:50:00,34.8,34.3,30.05,SW,226,0.0,2.0,98,0.00,,,0.00,47.00,VWS V14.01,2013-12-30 12:50:00,
2013-12-30 07:55:00,35.5,35.0,30.05,SW,226,1.0,2.0,98,0.00,,,0.00,58.00,VWS V14.01,2013-12-30 12:55:00,
2013-12-30 08:00:00,35.3,34.8,30.06,SW,226,1.0,2.0,98,0.00,,,0.00,67.00,VWS V14.01,2013-12-30 13:00:00,
2013-12-30 08:05:00,35.3,34.5,30.06,SW,226,0.0,2.0,97,0.00,,,0.00,86.00,VWS V14.01,2013-12-30 13:05:00,
2013-12-30 08:10:00,35.4,34.6,30.06,SW,226,0.0,2.0,97,0.00,,,0.00,84.00,VWS V14.01,2013-12-30 13:10:00,
2013-12-30 08:15:00,35.7,34.9,30.05,SW,226,1.0,2.0,97,0.00,,,0.00,123.00,VWS V14.01,2013-12-30 13:15:00,
2013-12-30 08:20:00,36.4,35.6,30.05,SW,226,0.0,2.0,97,0.00,,,0.00,111.00,VWS V14.01,2013-12-30 13:20:00,
2013-12-30 08:25:00,36.9,36.4,30.05,SW,226,0.0,2.0,98,0.00,,,0.00,95.00,VWS V14.01,2013-12-30 13:25:00,
2013-12-30 08:30:00,37.1,36.6,30.06,SW,226,0.0,2.0,98,0.00,,,0.00,97.00,VWS V14.01,2013-12-30 13:30:00,
2013-12-30 08:35:00,43.9,42.8,30.11,West,271,2.0,2.0,96,0.00,,CLR,0.00,287.00,VWS V15.00,2013-12-30 13:35:00,
2013-12-30 08:36:00,37.4,36.9,30.06,SW,226,1.0,2.0,98,0.00,,,0.00,178.00,VWS V14.01,2013-12-30 13:36:00,
2013-12-30 08:40:00,44.2,43.1,30.11,West,281,2.0,2.0,96,0.00,,CLR,0.00,232.00,VWS V15.00,2013-12-30 13:40:00,
2013-12-30 08:41:00,37.9,37.4,30.07,West,262,2.0,2.0,98,0.00,,,0.00,190.00,VWS V14.01,2013-12-30 13:41:00,
2013-12-30 08:45:00,44.5,42.9,30.11,West,263,1.0,2.0,94,0.00,,CLR,0.00,234.00,VWS V15.00,2013-12-30 13:45:00,
2013-12-30 08:46:00,38.3,37.8,30.07,West,265,2.0,2.0,98,0.00,,,0.00,188.00,VWS V14.01,2013-12-30 13:46:00,
2013-12-30 08:50:00,44.7,43.4,30.11,WNW,284,2.0,2.0,95,0.00,,CLR,0.00,225.00,VWS V15.00,2013-12-30 13:50:00,
2013-12-30 08:51:00,38.9,38.4,30.07,West,265,1.0,2.0,98,0.00,,,0.00,230.00,VWS V14.01,2013-12-30 13:51:00,
2013-12-30 08:56:00,40.2,39.7,30.08,West,263,1.0,2.0,98,0.00,,,0.00,241.00,VWS V14.01,2013-12-30 13:56:00,
2013-12-30 09:00:00,45.0,43.4,30.12,West,272,2.0,2.0,94,0.00,,CLR,0.00,200.00,VWS V15.00,2013-12-30 14:00:00,
2013-12-30 09:01:00,41.4,40.9,30.08,WSW,256,2.0,2.0,98,0.00,,CLR,0.00,262.00,VWS V14.01,2013-12-30 14:01:00,
2013-12-30 09:05:00,45.1,42.9,30.12,West,281,3.0,3.0,92,0.00,,CLR,0.00,181.00,VWS V15.00,2013-12-30 14:05:00,
2013-12-30 09:06:00,42.5,42.0,30.09,WSW,243,2.0,2.0,98,0.00,,CLR,0.00,322.00,VWS V14.01,2013-12-30 14:06:00,
2013-12-30 09:10:00,44.9,42.7,30.11,West,261,2.0,2.0,92,0.00,,CLR,0.00,241.00,VWS V15.00,2013-12-30 14:10:00,
2013-12-30 09:11:00,43.1,42.6,30.09,West,265,2.0,2.0,98,0.00,,CLR,0.00,329.00,VWS V14.01,2013-12-30 14:11:00,
2013-12-30 09:15:00,45.2,43.0,30.11,West,278,3.0,3.0,92,0.00,,CLR,0.00,341.00,VWS V15.00,2013-12-30 14:15:00,
2013-12-30 09:16:00,43.2,42.7,30.09,West,263,4.0,4.0,98,0.00,,CLR,0.00,156.00,VWS V14.01,2013-12-30 14:16:00,
2013-12-30 09:20:00,45.6,42.8,30.12,West,265,2.0,2.0,90,0.00,,CLR,0.00,380.00,VWS V15.00,2013-12-30 14:20:00,
2013-12-30 09:21:00,43.4,42.9,30.10,West,279,2.0,2.0,98,0.00,,CLR,0.00,179.00,VWS V14.01,2013-12-30 14:21:00,
2013-12-30 09:26:00,43.7,43.2,30.10,WNW,285,3.0,3.0,98,0.00,,CLR,0.00,318.00,VWS V14.01,2013-12-30 14:26:00,
2013-12-30 09:32:00,43.8,42.7,30.11,West,270,2.0,2.0,96,0.00,,CLR,0.00,288.00,VWS V14.01,2013-12-30 14:32:00,
2013-12-30 09:37:00,44.1,43.0,30.11,West,268,3.0,3.0,96,0.00,,CLR,0.00,250.00,VWS V14.01,2013-12-30 14:37:00,
2013-12-30 09:42:00,44.4,43.1,30.11,West,264,3.0,3.0,95,0.00,,CLR,0.00,234.00,VWS V14.01,2013-12-30 14:42:00,
2013-12-30 09:47:00,44.5,43.2,30.11,West,269,1.0,2.0,95,0.00,,CLR,0.00,244.00,VWS V14.01,2013-12-30 14:47:00,
2013-12-30 09:50:00,47.9,45.1,30.10,WSW,242,2.0,2.0,90,0.00,,CLR,0.00,468.00,VWS V15.00,2013-12-30 14:50:00,
2013-12-30 09:52:00,44.8,43.2,30.11,West,270,2.0,2.0,94,0.00,,CLR,0.00,227.00,VWS V14.01,2013-12-30 14:52:00,
2013-12-30 09:57:00,44.9,43.3,30.12,West,265,1.0,2.0,94,0.00,,CLR,0.00,218.00,VWS V14.01,2013-12-30 14:57:00,
2013-12-30 10:02:00,45.1,43.5,30.12,West,269,2.0,2.0,94,0.00,,CLR,0.00,176.00,VWS V14.01,2013-12-30 15:02:00,
2013-12-30 10:05:00,49.1,43.8,30.10,SW,226,3.0,3.0,82,0.00,,CLR,0.00,499.00,VWS V15.00,2013-12-30 15:05:00,
2013-12-30 10:07:00,45.0,42.5,30.12,WSW,253,3.0,3.0,91,0.00,,CLR,0.00,211.00,VWS V14.01,2013-12-30 15:07:00,
2013-12-30 10:10:00,49.5,43.6,30.10,WSW,248,3.0,3.0,80,0.00,,CLR,0.00,334.00,VWS V15.00,2013-12-30 15:10:00,
2013-12-30 10:12:00,45.1,42.9,30.11,West,267,2.0,2.0,92,0.00,,CLR,0.00,299.00,VWS V14.01,2013-12-30 15:12:00,
2013-12-30 10:17:00,45.4,42.9,30.11,West,261,2.0,2.0,91,0.00,,CLR,0.00,325.00,VWS V14.01,2013-12-30 15:17:00,
2013-12-30 10:20:00,50.5,44.9,30.10,SW,219,3.0,3.0,81,0.00,,CLR,0.00,714.00,VWS V15.00,2013-12-30 15:20:00,
2013-12-30 10:22:00,45.8,43.0,30.11,WSW,253,3.0,3.0,90,0.00,,CLR,0.00,427.00,VWS V14.01,2013-12-30 15:22:00,
2013-12-30 10:25:00,50.8,44.5,30.10,WSW,254,2.0,2.0,79,0.00,,CLR,0.00,341.00,VWS V15.00,2013-12-30 15:25:00,
2013-12-30 10:28:00,46.1,43.3,30.12,West,276,3.0,3.0,90,0.00,,CLR,0.00,186.00,VWS V14.01,2013-12-30 15:28:00,
2013-12-30 10:30:00,50.8,44.2,30.09,WSW,241,3.0,3.0,78,0.00,,CLR,0.00,258.00,VWS V15.00,2013-12-30 15:30:00,
2013-12-30 10:33:00,46.4,43.6,30.12,West,265,2.0,2.0,90,0.00,,CLR,0.00,257.00,VWS V14.01,2013-12-30 15:33:00,
2013-12-30 10:35:00,51.0,44.4,30.09,SSW,211,1.0,2.0,78,0.00,,CLR,0.00,223.00,VWS V15.00,2013-12-30 15:35:00,
2013-12-30 10:38:00,46.7,44.2,30.12,West,277,3.0,3.0,91,0.00,,CLR,0.00,225.00,VWS V14.01,2013-12-30 15:38:00,
2013-12-30 10:40:00,51.2,44.2,30.09,WSW,257,3.0,3.0,77,0.00,,CLR,0.00,260.00,VWS V15.00,2013-12-30 15:40:00,
2013-12-30 10:43:00,47.0,43.9,30.11,SW,227,0.0,2.0,89,0.00,,CLR,0.00,522.00,VWS V14.01,2013-12-30 15:43:00,
2013-12-30 10:45:00,51.2,43.6,30.10,SW,229,2.0,2.0,75,0.00,,CLR,0.00,257.00,VWS V15.00,2013-12-30 15:45:00,
2013-12-30 10:48:00,47.7,44.6,30.10,West,274,0.0,2.0,89,0.00,,CLR,0.00,568.00,VWS V14.01,2013-12-30 15:48:00,
2013-12-30 10:50:00,51.4,43.4,30.09,SW,219,1.0,2.0,74,0.00,,CLR,0.00,246.00,VWS V15.00,2013-12-30 15:50:00,
2013-12-30 10:53:00,48.3,44.6,30.10,SW,222,2.0,2.0,87,0.00,,CLR,0.00,538.00,VWS V14.01,2013-12-30 15:53:00,
2013-12-30 10:55:00,51.5,43.8,30.09,WNW,285,2.0,2.0,75,0.00,,CLR,0.00,264.00,VWS V15.00,2013-12-30 15:55:00,
2013-12-30 10:58:00,48.7,43.5,30.10,WSW,237,4.0,4.0,82,0.00,,CLR,0.00,274.00,VWS V14.01,2013-12-30 15:58:00,
2013-12-30 11:00:00,51.7,44.0,30.10,West,259,3.0,3.0,75,0.00,,CLR,0.00,297.00,VWS V15.00,2013-12-30 16:00:00,
2013-12-30 11:03:00,49.0,43.4,30.10,SSW,198,3.0,3.0,81,0.00,,CLR,0.00,541.00,VWS V14.01,2013-12-30 16:03:00,
2013-12-30 11:05:00,51.7,44.4,30.09,WSW,255,2.0,2.0,76,0.00,,CLR,0.00,272.00,VWS V15.00,2013-12-30 16:05:00,
2013-12-30 11:08:00,49.4,43.5,30.10,SW,227,3.0,3.0,80,0.00,,CLR,0.00,383.00,VWS V14.01,2013-12-30 16:08:00,
2013-12-30 11:10:00,51.8,44.5,30.09,West,271,3.0,3.0,76,0.00,,CLR,0.00,255.00,VWS V15.00,2013-12-30 16:10:00,
2013-12-30 11:13:00,49.9,44.0,30.10,WSW,237,2.0,2.0,80,0.00,,CLR,0.00,636.00,VWS V14.01,2013-12-30 16:13:00,
2013-12-30 11:15:00,51.8,45.2,30.10,SW,234,2.0,2.0,78,0.00,,CLR,0.00,211.00,VWS V15.00,2013-12-30 16:15:00,
2013-12-30 11:18:00,50.4,44.5,30.10,SW,214,3.0,3.0,80,0.00,,CLR,0.00,714.00,VWS V14.01,2013-12-30 16:18:00,
2013-12-30 11:20:00,51.8,44.8,30.10,West,264,2.0,2.0,77,0.00,,CLR,0.00,257.00,VWS V15.00,2013-12-30 16:20:00,
2013-12-30 11:23:00,50.7,44.1,30.10,WSW,250,4.0,4.0,78,0.00,,CLR,0.00,336.00,VWS V14.01,2013-12-30 16:23:00,
2013-12-30 11:25:00,51.7,45.1,30.09,West,265,3.0,3.0,78,0.00,,CLR,0.00,253.00,VWS V15.00,2013-12-30 16:25:00,
2013-12-30 11:29:00,50.8,43.9,30.09,SW,228,4.0,4.0,77,0.00,,CLR,0.00,255.00,VWS V14.01,2013-12-30 16:29:00,
2013-12-30 11:30:00,51.6,45.0,30.09,West,271,1.0,2.0,78,0.00,,CLR,0.00,350.00,VWS V15.00,2013-12-30 16:30:00,
2013-12-30 11:34:00,50.9,44.3,30.09,SW,222,3.0,3.0,78,0.00,,CLR,0.00,227.00,VWS V14.01,2013-12-30 16:34:00,
2013-12-30 11:35:00,51.7,44.4,30.09,WSW,252,3.0,3.0,76,0.00,,CLR,0.00,285.00,VWS V15.00,2013-12-30 16:35:00,
2013-12-30 11:39:00,51.1,43.8,30.09,WNW,288,2.0,2.0,76,0.00,,CLR,0.00,257.00,VWS V14.01,2013-12-30 16:39:00,
2013-12-30 11:40:00,51.6,44.6,30.08,SSW,198,3.0,3.0,77,0.00,,CLR,0.00,287.00,VWS V15.00,2013-12-30 16:40:00,
2013-12-30 11:44:00,51.3,43.7,30.10,WSW,246,3.0,3.0,75,0.00,,CLR,0.00,262.00,VWS V14.01,2013-12-30 16:44:00,
2013-12-30 11:45:00,51.8,44.8,30.08,SW,220,4.0,4.0,77,0.00,,CLR,0.00,267.00,VWS V15.00,2013-12-30 16:45:00,
2013-12-30 11:49:00,51.4,43.4,30.09,SW,225,2.0,2.0,74,0.00,,CLR,0.00,246.00,VWS V14.01,2013-12-30 16:49:00,
2013-12-30 11:50:00,51.8,44.5,30.08,West,273,2.0,2.0,76,0.00,,CLR,0.00,260.00,VWS V15.00,2013-12-30 16:50:00,
2013-12-30 11:54:00,51.5,43.8,30.09,West,267,2.0,2.0,75,0.00,,CLR,0.00,264.00,VWS V14.01,2013-12-30 16:54:00,
2013-12-30 11:59:00,51.7,44.7,30.10,West,281,4.0,4.0,77,0.00,,CLR,0.00,297.00,VWS V14.01,2013-12-30 16:59:00,
2013-12-30 12:00:00,52.0,44.7,30.08,West,273,2.0,2.0,76,0.00,,CLR,0.00,308.00,VWS V15.00,2013-12-30 17:00:00,
2013-12-30 12:04:00,51.7,44.4,30.09,West,274,1.0,2.0,76,0.00,,CLR,0.00,272.00,VWS V14.01,2013-12-30 17:04:00,
2013-12-30 12:05:00,52.1,44.4,30.08,WSW,242,3.0,3.0,75,0.00,,CLR,0.00,281.00,VWS V15.00,2013-12-30 17:05:00,
2013-12-30 12:09:00,51.9,44.6,30.09,West,271,4.0,4.0,76,0.00,,CLR,0.00,255.00,VWS V14.01,2013-12-30 17:09:00,
2013-12-30 12:10:00,52.1,44.1,30.08,SW,227,5.0,5.0,74,0.00,,CLR,0.00,272.00,VWS V15.00,2013-12-30 17:10:00,
2013-12-30 12:14:00,51.8,45.2,30.10,SW,236,3.0,3.0,78,0.00,,CLR,0.00,211.00,VWS V14.01,2013-12-30 17:14:00,
2013-12-30 12:15:00,52.1,43.4,30.08,West,261,4.0,4.0,72,0.00,,CLR,0.00,221.00,VWS V15.00,2013-12-30 17:15:00,
2013-12-30 12:19:00,51.8,44.8,30.10,West,264,2.0,2.0,77,0.00,,CLR,0.00,257.00,VWS V14.01,2013-12-30 17:19:00,
2013-12-30 12:20:00,52.1,43.0,30.08,West,269,1.0,2.0,71,0.00,,CLR,0.00,186.00,VWS V15.00,2013-12-30 17:20:00,
2013-12-30 12:24:00,51.7,45.1,30.09,West,265,3.0,3.0,78,0.00,,CLR,0.00,253.00,VWS V14.01,2013-12-30 17:24:00,
2013-12-30 12:25:00,52.0,42.9,30.08,SW,224,2.0,2.0,71,0.00,,CLR,0.00,176.00,VWS V15.00,2013-12-30 17:25:00,
2013-12-30 12:29:00,51.6,45.0,30.09,West,271,1.0,2.0,78,0.00,,CLR,0.00,350.00,VWS V14.01,2013-12-30 17:29:00,
2013-12-30 12:30:00,52.0,43.3,30.08,SW,230,4.0,4.0,72,0.00,,CLR,0.00,163.00,VWS V15.00,2013-12-30 17:30:00,
2013-12-30 12:34:00,51.7,44.4,30.09,WSW,252,3.0,3.0,76,0.00,,CLR,0.00,285.00,VWS V14.01,2013-12-30 17:34:00,
2013-12-30 12:35:00,52.0,42.5,30.08,SW,226,3.0,3.0,70,0.00,,CLR,0.00,169.00,VWS V15.00,2013-12-30 17:35:00,
2013-12-30 12:39:00,51.6,44.6,30.08,SSW,198,3.0,3.0,77,0.00,,CLR,0.00,287.00,VWS V14.01,2013-12-30 17:39:00,
2013-12-30 12:40:00,52.0,42.9,30.08,West,263,4.0,4.0,71,0.00,,CLR,0.00,193.00,VWS V15.00,2013-12-30 17:40:00,
2013-12-30 12:44:00,51.8,44.8,30.08,SW,220,4.0,4.0,77,0.00,,CLR,0.00,267.00,VWS V14.01,2013-12-30 17:44:00,
2013-12-30 12:45:00,52.1,43.0,30.08,West,275,4.0,4.0,71,0.00,,CLR,0.00,179.00,VWS V15.00,2013-12-30 17:45:00,
2013-12-30 12:49:00,51.8,44.5,30.08,West,273,2.0,2.0,76,0.00,,CLR,0.00,260.00,VWS V14.01,2013-12-30 17:49:00,
2013-12-30 12:50:00,52.1,43.0,30.08,WSW,258,4.0,4.0,71,0.00,,CLR,0.00,186.00,VWS V15.00,2013-12-30 17:50:00,
2013-12-30 12:54:00,51.9,45.6,30.08,WSW,253,3.0,3.0,79,0.00,,CLR,0.00,285.00,VWS V14.01,2013-12-30 17:54:00,
2013-12-30 12:55:00,52.2,42.7,30.08,West,265,3.0,3.0,70,0.00,,CLR,0.00,162.00,VWS V15.00,2013-12-30 17:55:00,
2013-12-30 12:59:00,52.0,44.7,30.08,West,273,2.0,2.0,76,0.00,,CLR,0.00,308.00,VWS V14.01,2013-12-30 17:59:00,
2013-12-30 13:00:00,52.2,43.5,30.07,SSW,213,1.0,2.0,72,0.00,,CLR,0.00,125.00,VWS V15.00,2013-12-30 18:00:00,
2013-12-30 13:04:00,52.1,44.4,30.08,WSW,242,3.0,3.0,75,0.00,,CLR,0.00,281.00,VWS V14.01,2013-12-30 18:04:00,
2013-12-30 13:05:00,52.1,43.0,30.07,SSW,203,2.0,2.0,71,0.00,,CLR,0.00,127.00,VWS V15.00,2013-12-30 18:05:00,
2013-12-30 13:09:00,52.1,44.1,30.08,SW,232,4.0,4.0,74,0.00,,CLR,0.00,272.00,VWS V14.01,2013-12-30 18:09:00,
2013-12-30 13:10:00,52.1,43.7,30.07,WSW,258,2.0,2.0,73,0.00,,CLR,0.00,125.00,VWS V15.00,2013-12-30 18:10:00,
2013-12-30 13:15:00,52.1,44.1,30.08,WSW,254,4.0,4.0,74,0.00,,CLR,0.00,221.00,VWS V14.01,2013-12-30 18:15:00,
2013-12-30 13:20:00,52.1,43.4,30.08,WSW,243,3.0,3.0,72,0.00,,CLR,0.00,186.00,VWS V14.01,2013-12-30 18:20:00,
2013-12-30 13:25:00,52.1,43.4,30.08,SW,228,4.0,4.0,72,0.00,,CLR,0.00,176.00,VWS V14.01,2013-12-30 18:25:00,
2013-12-30 13:30:00,52.1,43.4,30.08,SW,223,3.0,3.0,72,0.00,,CLR,0.00,163.00,VWS V14.01,2013-12-30 18:30:00,
2013-12-30 13:35:00,52.0,42.5,30.08,SW,225,3.0,3.0,70,0.00,,CLR,0.00,172.00,VWS V14.01,2013-12-30 18:35:00,
2013-12-30 13:40:00,52.0,42.9,30.08,SW,226,2.0,2.0,71,0.00,,CLR,0.00,193.00,VWS V14.01,2013-12-30 18:40:00,
2013-12-30 13:45:00,52.1,43.0,30.08,WNW,295,4.0,4.0,71,0.00,,CLR,0.00,181.00,VWS V14.01,2013-12-30 18:45:00,
2013-12-30 13:50:00,52.1,43.4,30.08,WNW,294,4.0,4.0,72,0.00,,CLR,0.00,185.00,VWS V14.01,2013-12-30 18:50:00,
2013-12-30 13:55:00,52.2,43.1,30.08,West,259,4.0,4.0,71,0.00,,CLR,0.00,156.00,VWS V14.01,2013-12-30 18:55:00,
2013-12-30 14:00:00,52.2,43.5,30.07,SSW,213,2.0,2.0,72,0.00,,CLR,0.00,123.00,VWS V14.01,2013-12-30 19:00:00,
2013-12-30 14:05:00,52.1,43.0,30.07,SSW,203,1.0,2.0,71,0.00,,CLR,0.00,127.00,VWS V14.01,2013-12-30 19:05:00,
2013-12-30 14:10:00,52.1,43.7,30.07,WSW,249,2.0,2.0,73,0.00,,CLR,0.00,111.00,VWS V14.01,2013-12-30 19:10:00,
2013-12-30 14:15:00,52.1,42.6,30.08,SW,225,4.0,4.0,70,0.00,,CLR,0.00,109.00,VWS V14.01,2013-12-30 19:15:00,
2013-12-30 14:20:00,52.1,42.2,30.08,WSW,245,3.0,3.0,69,0.00,,CLR,0.00,100.00,VWS V15.00,2013-12-30 19:20:00,
2013-12-30 14:21:00,52.0,42.5,30.08,SW,214,2.0,2.0,70,0.00,,CLR,0.00,120.00,VWS V14.01,2013-12-30 19:21:00,
2013-12-30 14:25:00,52.1,42.6,30.08,WSW,251,2.0,2.0,70,0.00,,CLR,0.00,90.00,VWS V15.00,2013-12-30 19:25:00,
2013-12-30 14:26:00,52.1,43.0,30.08,SW,231,2.0,2.0,71,0.00,,CLR,0.00,134.00,VWS V14.01,2013-12-30 19:26:00,
2013-12-30 14:30:00,52.1,42.6,30.08,WSW,257,2.0,2.0,70,0.00,,CLR,0.00,88.00,VWS V15.00,2013-12-30 19:30:00,
2013-12-30 14:31:00,52.1,43.0,30.07,SW,219,2.0,2.0,71,0.00,,CLR,0.00,128.00,VWS V14.01,2013-12-30 19:31:00,
2013-12-30 14:35:00,52.1,43.0,30.09,SW,223,2.0,2.0,71,0.00,,CLR,0.00,100.00,VWS V15.00,2013-12-30 19:35:00,
2013-12-30 14:36:00,52.1,43.0,30.07,WSW,238,2.0,2.0,71,0.00,,CLR,0.00,155.00,VWS V14.01,2013-12-30 19:36:00,
2013-12-30 14:40:00,52.1,43.4,30.09,WSW,237,2.0,2.0,72,0.00,,CLR,0.00,113.00,VWS V15.00,2013-12-30 19:40:00,
2013-12-30 14:41:00,52.2,43.1,30.07,SW,218,2.0,2.0,71,0.00,,CLR,0.00,146.00,VWS V14.01,2013-12-30 19:41:00,
2013-12-30 14:45:00,52.1,43.0,30.09,WSW,243,2.0,2.0,71,0.00,,CLR,0.00,91.00,VWS V15.00,2013-12-30 19:45:00,
2013-12-30 14:46:00,52.3,43.2,30.07,SSW,209,4.0,4.0,71,0.00,,CLR,0.00,185.00,VWS V14.01,2013-12-30 19:46:00,
2013-12-30 14:50:00,52.1,43.4,30.09,WSW,246,2.0,2.0,72,0.00,,CLR,0.00,77.00,VWS V15.00,2013-12-30 19:50:00,
2013-12-30 14:51:00,52.4,42.5,30.07,West,259,3.0,3.0,69,0.00,,CLR,0.00,156.00,VWS V14.01,2013-12-30 19:51:00,
2013-12-30 14:55:00,52.0,42.9,30.08,SSW,204,3.0,3.0,71,0.00,,CLR,0.00,67.00,VWS V15.00,2013-12-30 19:55:00,
2013-12-30 14:56:00,52.4,42.2,30.07,SW,221,6.0,6.0,68,0.00,,CLR,0.00,134.00,VWS V14.01,2013-12-30 19:56:00,
2013-12-30 15:00:00,51.9,43.5,30.08,SSW,209,0.0,2.0,73,0.00,,CLR,0.00,53.00,VWS V15.00,2013-12-30 20:00:00,
2013-12-30 15:01:00,52.3,42.1,30.07,WSW,247,2.0,2.0,68,0.00,,CLR,0.00,109.00,VWS V14.01,2013-12-30 20:01:00,
2013-12-30 15:05:00,51.9,43.9,30.08,SSW,208,1.0,2.0,74,0.00,,CLR,0.00,58.00,VWS V15.00,2013-12-30 20:05:00,
2013-12-30 15:06:00,52.2,42.3,30.08,SW,235,4.0,4.0,69,0.00,,CLR,0.00,116.00,VWS V14.01,2013-12-30 20:06:00,
2013-12-30 15:10:00,51.7,43.7,30.09,SSW,209,1.0,2.0,74,0.00,,CLR,0.00,54.00,VWS V15.00,2013-12-30 20:10:00,
2013-12-30 15:11:00,52.2,42.0,30.08,SW,227,2.0,2.0,68,0.00,,CLR,0.00,123.00,VWS V14.01,2013-12-30 20:11:00,
2013-12-30 15:15:00,51.6,43.2,30.09,SW,236,2.0,2.0,73,0.00,,CLR,0.00,53.00,VWS V15.00,2013-12-30 20:15:00,
2013-12-30 15:17:00,52.2,42.7,30.08,SW,222,4.0,4.0,70,0.00,,CLR,0.00,109.00,VWS V14.01,2013-12-30 20:17:00,
2013-12-30 15:20:00,51.5,43.8,30.10,SW,236,1.0,2.0,75,0.00,,CLR,0.00,39.00,VWS V15.00,2013-12-30 20:20:00,
2013-12-30 15:22:00,52.1,42.6,30.08,WSW,246,2.0,2.0,70,0.00,,CLR,0.00,91.00,VWS V14.01,2013-12-30 20:22:00,
2013-12-30 15:25:00,51.4,43.8,30.09,SW,236,0.0,2.0,75,0.00,,CLR,0.00,37.00,VWS V15.00,2013-12-30 20:25:00,
2013-12-30 15:27:00,52.1,42.6,30.08,West,262,2.0,2.0,70,0.00,,CLR,0.00,90.00,VWS V14.01,2013-12-30 20:27:00,
2013-12-30 15:30:00,51.3,44.0,30.09,SW,223,0.0,2.0,76,0.00,,CLR,0.00,42.00,VWS V15.00,2013-12-30 20:30:00,
2013-12-30 15:32:00,52.1,43.7,30.09,WSW,239,2.0,2.0,73,0.00,,CLR,0.00,90.00,VWS V14.01,2013-12-30 20:32:00,
2013-12-30 15:35:00,51.1,43.5,30.09,SSE,164,0.0,2.0,75,0.00,,CLR,0.00,37.00,VWS V15.00,2013-12-30 20:35:00,
2013-12-30 15:37:00,52.1,43.4,30.09,WSW,237,1.0,2.0,72,0.00,,CLR,0.00,111.00,VWS V14.01,2013-12-30 20:37:00,
2013-12-30 15:40:00,51.0,43.4,30.09,SSW,196,0.0,2.0,75,0.00,,CLR,0.00,33.00,VWS V15.00,2013-12-30 20:40:00,
2013-12-30 15:42:00,52.1,43.4,30.09,SW,225,1.0,2.0,72,0.00,,CLR,0.00,104.00,VWS V14.01,2013-12-30 20:42:00,
2013-12-30 15:45:00,50.9,43.6,30.09,SSE,167,1.0,2.0,76,0.00,,CLR,0.00,26.00,VWS V15.00,2013-12-30 20:45:00,
2013-12-30 15:47:00,52.1,43.4,30.08,SW,223,2.0,2.0,72,0.00,,CLR,0.00,79.00,VWS V14.01,2013-12-30 20:47:00,
2013-12-30 15:50:00,50.8,43.2,30.08,South,172,1.0,2.0,75,0.00,,CLR,0.00,21.00,VWS V15.00,2013-12-30 20:50:00,
2013-12-30 15:52:00,52.1,43.4,30.08,WSW,245,2.0,2.0,72,0.00,,CLR,0.00,70.00,VWS V14.01,2013-12-30 20:52:00,
2013-12-30 15:55:00,50.6,43.3,30.08,South,170,1.0,2.0,76,0.00,,CLR,0.00,18.00,VWS V15.00,2013-12-30 20:55:00,
2013-12-30 15:57:00,52.0,43.3,30.08,SSW,209,1.0,2.0,72,0.00,,CLR,0.00,58.00,VWS V14.01,2013-12-30 20:57:00,
2013-12-30 16:00:00,50.5,43.6,30.09,SSW,204,1.0,2.0,77,0.00,,CLR,0.00,16.00,VWS V15.00,2013-12-30 21:00:00,
2013-12-30 16:02:00,51.9,43.5,30.08,SSW,209,1.0,2.0,73,0.00,,CLR,0.00,54.00,VWS V14.01,2013-12-30 21:02:00,
2013-12-30 16:05:00,50.2,43.3,30.09,SW,215,1.0,2.0,77,0.00,,CLR,0.00,11.00,VWS V15.00,2013-12-30 21:05:00,
2013-12-30 16:07:00,51.8,43.8,30.08,SSW,209,1.0,2.0,74,0.00,,CLR,0.00,58.00,VWS V14.01,2013-12-30 21:07:00,
2013-12-30 16:10:00,49.9,43.3,30.09,SW,215,1.0,2.0,78,0.00,,CLR,0.00,5.00,VWS V15.00,2013-12-30 21:10:00,
2013-12-30 16:12:00,51.6,43.2,30.09,SW,217,1.0,2.0,73,0.00,,CLR,0.00,51.00,VWS V14.01,2013-12-30 21:12:00,
2013-12-30 16:15:00,49.7,43.1,30.09,SW,215,1.0,2.0,78,0.00,,CLR,0.00,0.00,VWS V15.00,2013-12-30 21:15:00,
2013-12-30 16:17:00,51.6,44.0,30.10,SW,236,1.0,2.0,75,0.00,,CLR,0.00,51.00,VWS V14.01,2013-12-30 21:17:00,
2013-12-30 16:20:00,49.4,43.2,30.08,SW,215,0.0,2.0,79,0.00,,CLR,0.00,0.00,VWS V15.00,2013-12-30 21:20:00,
2013-12-30 16:23:00,51.5,43.8,30.09,SW,236,0.0,2.0,75,0.00,,CLR,0.00,35.00,VWS V14.01,2013-12-30 21:23:00,
2013-12-30 16:25:00,49.2,43.0,30.09,SW,215,0.0,2.0,79,0.00,,CLR,0.00,0.00,VWS V15.00,2013-12-30 21:25:00,
2013-12-30 16:28:00,51.3,44.0,30.09,SW,223,1.0,2.0,76,0.00,,CLR,0.00,40.00,VWS V14.01,2013-12-30 21:28:00,
2013-12-30 16:30:00,49.0,43.1,30.09,SW,215,0.0,2.0,80,0.00,,CLR,0.00,0.00,VWS V15.00,2013-12-30 21:30:00,
2013-12-30 16:33:00,51.2,43.6,30.09,SSW,204,0.0,2.0,75,0.00,,CLR,0.00,40.00,VWS V14.01,2013-12-30 21:33:00,
2013-12-30 16:35:00,48.8,42.9,30.10,SW,215,1.0,2.0,80,0.00,,CLR,0.00,0.00,VWS V15.00,2013-12-30 21:35:00,
2013-12-30 16:38:00,51.0,43.4,30.09,SSW,196,1.0,2.0,75,0.00,,CLR,0.00,32.00,VWS V14.01,2013-12-30 21:38:00,
2013-12-30 16:40:00,48.6,42.7,30.10,SW,215,1.0,2.0,80,0.00,,CLR,0.00,0.00,VWS V15.00,2013-12-30 21:40:00,
2013-12-30 16:43:00,50.9,43.3,30.09,SSW,193,1.0,2.0,75,0.00,,CLR,0.00,32.00,VWS V14.01,2013-12-30 21:43:00,
2013-12-30 16:45:00,48.3,43.1,30.10,SW,215,1.0,2.0,82,0.00,,CLR,0.00,0.00,VWS V15.00,2013-12-30 21:45:00,
2013-12-30 16:48:00,50.9,43.3,30.08,SSW,198,2.0,2.0,75,0.00,,CLR,0.00,23.00,VWS V14.01,2013-12-30 21:48:00,
2013-12-30 16:50:00,48.1,42.9,30.10,SW,215,0.0,2.0,82,0.00,,CLR,0.00,0.00,VWS V15.00,2013-12-30 21:50:00,
2013-12-30 16:53:00,50.7,43.1,30.08,South,169,1.0,2.0,75,0.00,,CLR,0.00,18.00,VWS V14.01,2013-12-30 21:53:00,
2013-12-30 16:55:00,47.9,42.7,30.09,SW,215,0.0,2.0,82,0.00,,CLR,0.00,0.00,VWS V15.00,2013-12-30 21:55:00,
2013-12-30 16:58:00,50.5,43.2,30.08,South,186,1.0,2.0,76,0.00,,CLR,0.00,16.00,VWS V14.01,2013-12-30 21:58:00,
2013-12-30 17:00:00,47.8,42.6,30.08,SSE,160,1.0,2.0,82,0.00,,CLR,0.00,0.00,VWS V15.00,2013-12-30 22:00:00,
2013-12-30 17:03:00,50.2,43.3,30.09,SSW,213,2.0,2.0,77,0.00,,CLR,0.00,11.00,VWS V14.01,2013-12-30 22:03:00,
2013-12-30 17:05:00,47.9,42.7,30.09,SSE,160,1.0,2.0,82,0.00,,CLR,0.00,0.00,VWS V15.00,2013-12-30 22:05:00,
2013-12-30 17:08:00,50.0,43.4,30.09,SW,215,0.0,2.0,78,0.00,,CLR,0.00,5.00,VWS V14.01,2013-12-30 22:08:00,
2013-12-30 17:10:00,47.9,42.7,30.08,SSE,160,1.0,2.0,82,0.00,,CLR,0.00,0.00,VWS V15.00,2013-12-30 22:10:00,
2013-12-30 17:13:00,49.7,43.1,30.08,SW,215,1.0,2.0,78,0.00,,CLR,0.00,0.00,VWS V14.01,2013-12-30 22:13:00,
2013-12-30 17:15:00,47.8,42.6,30.10,SSE,160,0.0,2.0,82,0.00,,CLR,0.00,0.00,VWS V15.00,2013-12-30 22:15:00,
2013-12-30 17:18:00,49.4,43.2,30.09,SW,215,0.0,2.0,79,0.00,,CLR,0.00,0.00,VWS V14.01,2013-12-30 22:18:00,
2013-12-30 17:20:00,47.5,42.6,30.09,SSE,160,0.0,2.0,83,0.00,,CLR,0.00,0.00,VWS V15.00,2013-12-30 22:20:00,
2013-12-30 17:23:00,49.2,43.0,30.09,SW,215,0.0,2.0,79,0.00,,CLR,0.00,0.00,VWS V14.01,2013-12-30 22:23:00,
2013-12-30 17:25:00,47.2,42.3,30.09,SSE,160,0.0,2.0,83,0.00,,CLR,0.00,0.00,VWS V15.00,2013-12-30 22:25:00,
2013-12-30 17:28:00,49.1,43.2,30.09,SW,215,0.0,2.0,80,0.00,,CLR,0.00,0.00,VWS V14.01,2013-12-30 22:28:00,
2013-12-30 17:30:00,47.1,42.5,30.09,SSE,160,0.0,2.0,84,0.00,,CLR,0.00,0.00,VWS V15.00,2013-12-30 22:30:00,
2013-12-30 17:34:00,48.9,43.3,30.10,SW,215,0.0,2.0,81,0.00,,CLR,0.00,0.00,VWS V14.01,2013-12-30 22:34:00,
2013-12-30 17:35:00,46.9,42.3,30.10,SSE,160,0.0,2.0,84,0.00,,CLR,0.00,0.00,VWS V15.00,2013-12-30 22:35:00,
2013-12-30 17:39:00,48.6,42.7,30.10,SW,215,2.0,2.0,80,0.00,,CLR,0.00,0.00,VWS V14.01,2013-12-30 22:39:00,
2013-12-30 17:40:00,46.8,42.2,30.10,SSE,160,0.0,2.0,84,0.00,,CLR,0.00,0.00,VWS V15.00,2013-12-30 22:40:00,
2013-12-30 17:44:00,48.3,43.1,30.10,SW,215,1.0,2.0,82,0.00,,CLR,0.00,0.00,VWS V14.01,2013-12-30 22:44:00,
2013-12-30 17:45:00,46.5,42.2,30.10,SSE,160,0.0,2.0,85,0.00,,CLR,0.00,0.00,VWS V15.00,2013-12-30 22:45:00,
2013-12-30 17:49:00,48.1,42.9,30.10,SW,215,0.0,2.0,82,0.00,,CLR,0.00,0.00,VWS V14.01,2013-12-30 22:49:00,
2013-12-30 17:50:00,46.1,42.2,30.10,SSE,160,0.0,2.0,86,0.00,,CLR,0.00,0.00,VWS V15.00,2013-12-30 22:50:00,
2013-12-30 17:54:00,47.9,42.7,30.09,SW,215,0.0,2.0,82,0.00,,CLR,0.00,0.00,VWS V14.01,2013-12-30 22:54:00,
2013-12-30 17:55:00,45.9,42.0,30.11,SSE,160,0.0,2.0,86,0.00,,CLR,0.00,0.00,VWS V15.00,2013-12-30 22:55:00,
2013-12-30 17:59:00,47.8,42.6,30.08,SSE,160,1.0,2.0,82,0.00,,CLR,0.00,0.00,VWS V14.01,2013-12-30 22:59:00,
2013-12-30 18:00:00,45.7,42.1,30.10,SSE,160,0.0,2.0,87,0.00,,CLR,0.00,0.00,VWS V15.00,2013-12-30 23:00:00,
2013-12-30 18:04:00,47.9,42.7,30.09,SSE,160,1.0,2.0,82,0.00,,CLR,0.00,0.00,VWS V14.01,2013-12-30 23:04:00,
2013-12-30 18:05:00,45.5,41.9,30.10,SSE,160,0.0,2.0,87,0.00,,CLR,0.00,0.00,VWS V15.00,2013-12-30 23:05:00,
2013-12-30 18:09:00,47.9,42.7,30.08,SSE,160,1.0,2.0,82,0.00,,CLR,0.00,0.00,VWS V14.01,2013-12-30 23:09:00,
2013-12-30 18:10:00,45.3,42.0,30.11,SSE,160,0.0,2.0,88,0.00,,CLR,0.00,0.00,VWS V15.00,2013-12-30 23:10:00,
2013-12-30 18:14:00,47.8,42.6,30.10,SSE,160,1.0,2.0,82,0.00,,CLR,0.00,0.00,VWS V14.01,2013-12-30 23:14:00,
2013-12-30 18:15:00,45.2,42.2,30.11,SSE,160,0.0,2.0,89,0.00,,CLR,0.00,0.00,VWS V15.00,2013-12-30 23:15:00,
2013-12-30 18:19:00,47.6,42.7,30.09,SSE,160,0.0,2.0,83,0.00,,CLR,0.00,0.00,VWS V14.01,2013-12-30 23:19:00,
2013-12-30 18:20:00,45.1,42.1,30.11,SSE,160,0.0,2.0,89,0.00,,CLR,0.00,0.00,VWS V15.00,2013-12-30 23:20:00,
2013-12-30 18:24:00,47.2,42.3,30.09,SSE,160,0.0,2.0,83,0.00,,CLR,0.00,0.00,VWS V14.01,2013-12-30 23:24:00,
2013-12-30 18:25:00,45.3,42.3,30.11,SSE,160,0.0,2.0,89,0.00,,CLR,0.00,0.00,VWS V15.00,2013-12-30 23:25:00,
2013-12-30 18:29:00,47.1,42.5,30.09,SSE,160,0.0,2.0,84,0.00,,CLR,0.00,0.00,VWS V14.01,2013-12-30 23:29:00,
2013-12-30 18:30:00,45.5,42.2,30.11,SSE,160,1.0,2.0,88,0.00,,CLR,0.00,0.00,VWS V15.00,2013-12-30 23:30:00,
2013-12-30 18:34:00,46.9,42.3,30.10,SSE,160,0.0,2.0,84,0.00,,CLR,0.00,0.00,VWS V14.01,2013-12-30 23:34:00,
2013-12-30 18:35:00,45.7,42.4,30.11,SSE,160,0.0,2.0,88,0.00,,CLR,0.00,0.00,VWS V15.00,2013-12-30 23:35:00,
2013-12-30 18:39:00,46.8,42.2,30.10,SSE,160,0.0,2.0,84,0.00,,CLR,0.00,0.00,VWS V14.01,2013-12-30 23:39:00,
2013-12-30 18:40:00,45.5,42.2,30.12,SSE,160,1.0,2.0,88,0.00,,CLR,0.00,0.00,VWS V15.00,2013-12-30 23:40:00,
2013-12-30 18:44:00,46.5,42.2,30.09,SSE,160,0.0,2.0,85,0.00,,CLR,0.00,0.00,VWS V14.01,2013-12-30 23:44:00,
2013-12-30 18:45:00,45.2,41.9,30.11,SSE,160,1.0,2.0,88,0.00,,CLR,0.00,0.00,VWS V15.00,2013-12-30 23:45:00,
2013-12-30 18:49:00,46.1,42.2,30.10,SSE,160,0.0,2.0,86,0.00,,CLR,0.00,0.00,VWS V14.01,2013-12-30 23:49:00,
2013-12-30 18:50:00,44.9,41.9,30.12,SSE,160,0.0,2.0,89,0.00,,CLR,0.00,0.00,VWS V15.00,2013-12-30 23:50:00,
2013-12-30 18:54:00,45.9,42.0,30.11,SSE,160,0.0,2.0,86,0.00,,CLR,0.00,0.00,VWS V14.01,2013-12-30 23:54:00,
2013-12-30 18:55:00,44.7,41.7,30.12,SSE,160,0.0,2.0,89,0.00,,CLR,0.00,0.00,VWS V15.00,2013-12-30 23:55:00,
2013-12-30 18:59:00,45.7,42.1,30.10,SSE,160,0.0,2.0,87,0.00,,CLR,0.00,0.00,VWS V14.01,2013-12-30 23:59:00,
2013-12-30 19:00:00,44.5,41.5,30.13,SSE,160,0.0,2.0,89,0.00,,CLR,0.00,0.00,VWS V15.00,2013-12-31 00:00:00,
2013-12-30 19:04:00,45.5,41.9,30.10,SSE,160,0.0,2.0,87,0.00,,CLR,0.00,0.00,VWS V14.01,2013-12-31 00:04:00,
2013-12-30 19:05:00,44.1,41.1,30.13,SSE,160,0.0,2.0,89,0.00,,CLR,0.00,0.00,VWS V15.00,2013-12-31 00:05:00,
2013-12-30 19:09:00,45.3,42.0,30.11,SSE,160,0.0,2.0,88,0.00,,CLR,0.00,0.00,VWS V14.01,2013-12-31 00:09:00,
2013-12-30 19:14:00,45.2,42.2,30.11,SSE,160,0.0,2.0,89,0.00,,CLR,0.00,0.00,VWS V14.01,2013-12-31 00:14:00,
2013-12-30 19:15:00,43.7,41.2,30.13,SSE,160,0.0,2.0,91,0.00,,CLR,0.00,0.00,VWS V15.00,2013-12-31 00:15:00,
2013-12-30 19:19:00,45.1,42.1,30.11,SSE,160,0.0,2.0,89,0.00,,CLR,0.00,0.00,VWS V14.01,2013-12-31 00:19:00,
2013-12-30 19:20:00,43.6,41.4,30.13,SSE,160,0.0,2.0,92,0.00,,CLR,0.00,0.00,VWS V15.00,2013-12-31 00:20:00,
2013-12-30 19:25:00,45.3,42.3,30.11,SSE,160,0.0,2.0,89,0.00,,CLR,0.00,0.00,VWS V14.01,2013-12-31 00:25:00,
2013-12-30 19:30:00,45.5,42.2,30.11,SSE,160,1.0,2.0,88,0.00,,CLR,0.00,0.00,VWS V14.01,2013-12-31 00:30:00,
2013-12-30 19:35:00,45.7,42.1,30.11,SSE,160,0.0,2.0,87,0.00,,CLR,0.00,0.00,VWS V14.01,2013-12-31 00:35:00,
2013-12-30 19:40:00,45.5,42.2,30.12,SSE,160,1.0,2.0,88,0.00,,CLR,0.00,0.00,VWS V14.01,2013-12-31 00:40:00,
2013-12-30 19:45:00,45.2,41.9,30.11,SSE,160,1.0,2.0,88,0.00,,CLR,0.00,0.00,VWS V14.01,2013-12-31 00:45:00,
2013-12-30 19:50:00,44.9,41.9,30.12,SSE,160,0.0,2.0,89,0.00,,CLR,0.00,0.00,VWS V14.01,2013-12-31 00:50:00,
2013-12-30 19:55:00,44.7,41.7,30.13,SSE,160,0.0,2.0,89,0.00,,CLR,0.00,0.00,VWS V14.01,2013-12-31 00:55:00,
2013-12-30 20:00:00,44.4,41.4,30.13,SSE,160,0.0,2.0,89,0.00,,CLR,0.00,0.00,VWS V14.01,2013-12-31 01:00:00,
2013-12-30 20:05:00,44.1,41.4,30.13,SSE,160,0.0,2.0,90,0.00,,CLR,0.00,0.00,VWS V14.01,2013-12-31 01:05:00,
2013-12-30 20:10:00,43.4,41.5,30.13,East,94,0.0,2.0,93,0.00,,CLR,0.00,0.00,VWS V15.00,2013-12-31 01:10:00,
2013-12-30 20:11:00,43.8,41.3,30.13,SSE,160,0.0,2.0,91,0.00,,CLR,0.00,0.00,VWS V14.01,2013-12-31 01:11:00,
2013-12-30 20:15:00,43.5,41.6,30.13,ESE,102,0.0,2.0,93,0.00,,CLR,0.00,0.00,VWS V15.00,2013-12-31 01:15:00,
2013-12-30 20:16:00,43.7,41.2,30.13,SSE,160,0.0,2.0,91,0.00,,CLR,0.00,0.00,VWS V14.01,2013-12-31 01:16:00,
2013-12-30 20:20:00,43.6,41.7,30.13,ESE,102,0.0,2.0,93,0.00,,CLR,0.00,0.00,VWS V15.00,2013-12-31 01:20:00,
2013-12-30 20:21:00,43.6,41.4,30.13,SSE,160,0.0,2.0,92,0.00,,CLR,0.00,0.00,VWS V14.01,2013-12-31 01:21:00,
2013-12-30 20:25:00,43.7,41.8,30.12,ESE,102,1.0,2.0,93,0.00,,CLR,0.00,0.00,VWS V15.00,2013-12-31 01:25:00,
2013-12-30 20:26:00,43.7,41.5,30.13,SSE,160,0.0,2.0,92,0.00,,CLR,0.00,0.00,VWS V14.01,2013-12-31 01:26:00,
2013-12-30 20:31:00,43.7,41.5,30.13,SSE,160,0.0,2.0,92,0.00,,CLR,0.00,0.00,VWS V14.01,2013-12-31 01:31:00,
2013-12-30 20:36:00,43.8,41.9,30.13,SSE,160,1.0,2.0,93,0.00,,CLR,0.00,0.00,VWS V14.01,2013-12-31 01:36:00,
2013-12-30 20:40:00,43.8,41.3,30.13,ESE,102,0.0,2.0,91,0.00,,CLR,0.00,0.00,VWS V15.00,2013-12-31 01:40:00,
2013-12-30 20:41:00,44.1,41.9,30.12,East,81,2.0,2.0,92,0.00,,CLR,0.00,0.00,VWS V14.01,2013-12-31 01:41:00,
2013-12-30 20:45:00,43.6,41.4,30.14,ESE,102,0.0,2.0,92,0.00,,CLR,0.00,0.00,VWS V15.00,2013-12-31 01:45:00,
2013-12-30 20:46:00,43.8,41.3,30.13,East,81,0.0,2.0,91,0.00,,CLR,0.00,0.00,VWS V14.01,2013-12-31 01:46:00,
2013-12-30 20:50:00,43.5,41.6,30.13,ESE,102,0.0,2.0,93,0.00,,CLR,0.00,0.00,VWS V15.00,2013-12-31 01:50:00,
2013-12-30 20:51:00,43.6,41.2,30.13,East,81,0.0,2.0,91,0.00,,CLR,0.00,0.00,VWS V14.01,2013-12-31 01:51:00,
2013-12-30 20:55:00,43.4,41.5,30.14,ESE,102,1.0,2.0,93,0.00,,CLR,0.00,0.00,VWS V15.00,2013-12-31 01:55:00,
2013-12-30 20:56:00,43.4,41.2,30.13,East,81,0.0,2.0,92,0.00,,CLR,0.00,0.00,VWS V14.01,2013-12-31 01:56:00,
2013-12-30 21:00:00,43.3,41.4,30.14,ESE,102,0.0,2.0,93,0.00,,CLR,0.00,0.00,VWS V15.00,2013-12-31 02:00:00,
2013-12-30 21:01:00,43.4,41.5,30.13,East,92,1.0,2.0,93,0.00,,CLR,0.00,0.00,VWS V14.01,2013-12-31 02:01:00,
2013-12-30 21:05:00,43.2,41.3,30.13,ESE,102,0.0,2.0,93,0.00,,CLR,0.00,0.00,VWS V15.00,2013-12-31 02:05:00,
2013-12-30 21:07:00,43.4,41.5,30.13,East,92,1.0,2.0,93,0.00,,CLR,0.00,0.00,VWS V14.01,2013-12-31 02:07:00,
2013-12-30 21:10:00,43.1,41.2,30.14,ESE,102,0.0,2.0,93,0.00,,CLR,0.00,0.00,VWS V15.00,2013-12-31 02:10:00,
2013-12-30 21:12:00,43.5,41.6,30.13,ESE,102,0.0,2.0,93,0.00,,CLR,0.00,0.00,VWS V14.01,2013-12-31 02:12:00,
2013-12-30 21:15:00,43.1,41.5,30.13,ESE,111,0.0,2.0,94,0.00,,CLR,0.00,0.00,VWS V15.00,2013-12-31 02:15:00,
2013-12-30 21:17:00,43.6,41.7,30.13,ESE,102,0.0,2.0,93,0.00,,CLR,0.00,0.00,VWS V14.01,2013-12-31 02:17:00,
2013-12-30 21:20:00,43.3,41.7,30.13,SE,126,1.0,2.0,94,0.00,,CLR,0.00,0.00,VWS V15.00,2013-12-31 02:20:00,
2013-12-30 21:22:00,43.7,41.8,30.13,ESE,102,0.0,2.0,93,0.00,,CLR,0.00,0.00,VWS V14.01,2013-12-31 02:22:00,
2013-12-30 21:25:00,43.3,41.7,30.13,SE,126,0.0,2.0,94,0.00,,CLR,0.00,0.00,VWS V15.00,2013-12-31 02:25:00,
2013-12-30 21:27:00,43.8,41.9,30.12,ESE,102,2.0,2.0,93,0.00,,CLR,0.00,0.00,VWS V14.01,2013-12-31 02:27:00,
2013-12-30 21:30:00,43.3,41.7,30.13,SE,126,0.0,2.0,94,0.00,,CLR,0.00,0.00,VWS V15.00,2013-12-31 02:30:00,
2013-12-30 21:32:00,44.1,41.9,30.13,ESE,102,0.0,2.0,92,0.00,,CLR,0.00,0.00,VWS V14.01,2013-12-31 02:32:00,
2013-12-30 21:35:00,43.3,41.7,30.13,SE,126,1.0,2.0,94,0.00,,CLR,0.00,0.00,VWS V15.00,2013-12-31 02:35:00,
2013-12-30 21:37:00,44.0,41.5,30.13,ESE,102,0.0,2.0,91,0.00,,CLR,0.00,0.00,VWS V14.01,2013-12-31 02:37:00,
2013-12-30 21:40:00,43.5,41.9,30.12,SE,135,1.0,2.0,94,0.00,,CLR,0.00,0.00,VWS V15.00,2013-12-31 02:40:00,
2013-12-30 21:42:00,43.7,41.2,30.13,ESE,102,0.0,2.0,91,0.00,,CLR,0.00,0.00,VWS V14.01,2013-12-31 02:42:00,
2013-12-30 21:45:00,43.4,41.5,30.13,SE,136,0.0,2.0,93,0.00,,CLR,0.00,0.00,VWS V15.00,2013-12-31 02:45:00,
2013-12-30 21:47:00,43.5,41.6,30.14,ESE,102,0.0,2.0,93,0.00,,CLR,0.00,0.00,VWS V14.01,2013-12-31 02:47:00,
2013-12-30 21:50:00,43.2,41.3,30.13,SW,233,2.0,2.0,93,0.00,,CLR,0.00,0.00,VWS V15.00,2013-12-31 02:50:00,
2013-12-30 21:52:00,43.4,41.5,30.14,ESE,102,0.0,2.0,93,0.00,,CLR,0.00,0.00,VWS V14.01,2013-12-31 02:52:00,
2013-12-30 21:55:00,43.1,41.5,30.13,SW,233,2.0,2.0,94,0.00,,CLR,0.00,0.00,VWS V15.00,2013-12-31 02:55:00,
2013-12-30 21:57:00,43.3,41.4,30.14,ESE,102,0.0,2.0,93,0.00,,CLR,0.00,0.00,VWS V14.01,2013-12-31 02:57:00,
2013-12-30 22:00:00,43.2,41.6,30.13,SW,216,1.0,2.0,94,0.00,,CLR,0.00,0.00,VWS V15.00,2013-12-31 03:00:00,
2013-12-30 22:02:00,43.2,41.3,30.14,ESE,102,0.0,2.0,93,0.00,,CLR,0.00,0.00,VWS V14.01,2013-12-31 03:02:00,
2013-12-30 22:05:00,43.3,41.7,30.12,SW,216,0.0,2.0,94,0.00,,CLR,0.00,0.00,VWS V15.00,2013-12-31 03:05:00,
2013-12-30 22:07:00,43.1,41.2,30.14,ESE,102,0.0,2.0,93,0.00,,CLR,0.00,0.00,VWS V14.01,2013-12-31 03:07:00,
2013-12-30 22:10:00,43.3,41.7,30.12,SW,216,0.0,2.0,94,0.00,,CLR,0.00,0.00,VWS V15.00,2013-12-31 03:10:00,
2013-12-30 22:12:00,43.0,41.1,30.13,ESE,103,1.0,2.0,93,0.00,,CLR,0.00,0.00,VWS V14.01,2013-12-31 03:12:00,
2013-12-30 22:15:00,43.3,41.7,30.12,SW,216,1.0,2.0,94,0.00,,CLR,0.00,0.00,VWS V15.00,2013-12-31 03:15:00,
2013-12-30 22:17:00,43.2,41.6,30.13,ESE,111,0.0,2.0,94,0.00,,CLR,0.00,0.00,VWS V14.01,2013-12-31 03:17:00,
2013-12-30 22:20:00,43.3,41.7,30.12,SW,216,0.0,2.0,94,0.00,,CLR,0.00,0.00,VWS V15.00,2013-12-31 03:20:00,
2013-12-30 22:23:00,43.3,41.7,30.13,SE,126,0.0,2.0,94,0.00,,CLR,0.00,0.00,VWS V14.01,2013-12-31 03:23:00,
2013-12-30 22:25:00,43.4,41.8,30.12,SW,216,0.0,2.0,94,0.00,,CLR,0.00,0.00,VWS V15.00,2013-12-31 03:25:00,
2013-12-30 22:28:00,43.3,41.7,30.13,SE,126,0.0,2.0,94,0.00,,CLR,0.00,0.00,VWS V14.01,2013-12-31 03:28:00,
2013-12-30 22:30:00,43.6,42.0,30.11,SW,216,0.0,2.0,94,0.00,,CLR,0.00,0.00,VWS V15.00,2013-12-31 03:30:00,
2013-12-30 22:33:00,43.3,41.7,30.13,SE,126,0.0,2.0,94,0.00,,CLR,0.00,0.00,VWS V14.01,2013-12-31 03:33:00,
2013-12-30 22:35:00,43.6,42.0,30.12,WSW,244,2.0,2.0,94,0.00,,CLR,0.00,0.00,VWS V15.00,2013-12-31 03:35:00,
2013-12-30 22:38:00,43.4,41.8,30.12,SE,124,3.0,3.0,94,0.00,,CLR,0.00,0.00,VWS V14.01,2013-12-31 03:38:00,
2013-12-30 22:40:00,43.7,42.1,30.12,West,270,2.0,2.0,94,0.00,,CLR,0.00,0.00,VWS V15.00,2013-12-31 03:40:00,
2013-12-30 22:43:00,43.4,41.5,30.13,SE,135,0.0,2.0,93,0.00,,CLR,0.00,0.00,VWS V14.01,2013-12-31 03:43:00,
2013-12-30 22:45:00,43.9,42.3,30.13,West,271,2.0,2.0,94,0.00,,CLR,0.00,0.00,VWS V15.00,2013-12-31 03:45:00,
2013-12-30 22:48:00,43.2,41.3,30.13,SSW,205,1.0,2.0,93,0.00,,CLR,0.00,0.00,VWS V14.01,2013-12-31 03:48:00,
2013-12-30 22:50:00,44.4,42.8,30.13,West,263,2.0,2.0,94,0.00,,CLR,0.00,0.00,VWS V15.00,2013-12-31 03:50:00,
2013-12-30 22:53:00,43.1,41.5,30.13,SW,233,1.0,2.0,94,0.00,,CLR,0.00,0.00,VWS V14.01,2013-12-31 03:53:00,
2013-12-30 22:55:00,44.8,42.9,30.14,WSW,247,2.0,2.0,93,0.00,,CLR,0.00,0.00,VWS V15.00,2013-12-31 03:55:00,
2013-12-30 22:58:00,43.2,41.6,30.13,SW,216,1.0,2.0,94,0.00,,CLR,0.00,0.00,VWS V14.01,2013-12-31 03:58:00,
2013-12-30 23:00:00,45.2,43.3,30.14,WSW,252,2.0,2.0,93,0.00,,CLR,0.00,0.00,VWS V15.00,2013-12-31 04:00:00,
2013-12-30 23:03:00,43.3,41.7,30.12,SW,216,0.0,2.0,94,0.00,,SCT095,0.00,0.00,VWS V14.01,2013-12-31 04:03:00,
2013-12-30 23:05:00,45.6,43.4,30.14,West,280,4.0,4.0,92,0.00,,CLR,0.00,0.00,VWS V15.00,2013-12-31 04:05:00,
2013-12-30 23:08:00,43.3,41.7,30.12,SW,216,0.0,2.0,94,0.00,,SCT095,0.00,0.00,VWS V14.01,2013-12-31 04:08:00,
2013-12-30 23:10:00,45.9,43.4,30.14,WSW,246,3.0,3.0,91,0.00,,CLR,0.00,0.00,VWS V15.00,2013-12-31 04:10:00,
2013-12-30 23:13:00,43.2,41.6,30.12,SW,216,0.0,2.0,94,0.00,,SCT095,0.00,0.00,VWS V14.01,2013-12-31 04:13:00,
2013-12-30 23:15:00,46.0,43.5,30.13,WSW,250,5.0,5.0,91,0.00,,CLR,0.00,0.00,VWS V15.00,2013-12-31 04:15:00,
2013-12-30 23:18:00,43.3,41.7,30.12,SW,216,0.0,2.0,94,0.00,,SCT095,0.00,0.00,VWS V14.01,2013-12-31 04:18:00,
2013-12-30 23:20:00,46.0,43.2,30.13,SW,232,4.0,4.0,90,0.00,,CLR,0.00,0.00,VWS V15.00,2013-12-31 04:20:00,
2013-12-30 23:23:00,43.4,41.8,30.12,SW,216,0.0,2.0,94,0.00,,SCT095,0.00,0.00,VWS V14.01,2013-12-31 04:23:00,
2013-12-30 23:25:00,46.1,43.3,30.13,SW,236,5.0,5.0,90,0.00,,CLR,0.00,0.00,VWS V15.00,2013-12-31 04:25:00,
2013-12-30 23:29:00,43.5,41.9,30.11,SW,216,0.0,2.0,94,0.00,,SCT095,0.00,0.00,VWS V14.01,2013-12-31 04:29:00,
2013-12-30 23:30:00,46.2,43.1,30.13,West,267,4.0,4.0,89,0.00,,CLR,0.00,0.00,VWS V15.00,2013-12-31 04:30:00,
2013-12-30 23:34:00,43.6,42.0,30.12,WSW,244,2.0,2.0,94,0.00,,SCT095,0.00,0.00,VWS V14.01,2013-12-31 04:34:00,
2013-12-30 23:35:00,46.3,43.2,30.12,WSW,256,3.0,3.0,89,0.00,,CLR,0.00,0.00,VWS V15.00,2013-12-31 04:35:00,
2013-12-30 23:39:00,43.7,42.1,30.12,West,270,2.0,2.0,94,0.00,,SCT095,0.00,0.00,VWS V14.01,2013-12-31 04:39:00,
2013-12-30 23:40:00,46.3,43.2,30.12,WSW,246,4.0,4.0,89,0.00,,CLR,0.00,0.00,VWS V15.00,2013-12-31 04:40:00,
2013-12-30 23:44:00,43.9,42.3,30.13,West,272,3.0,3.0,94,0.00,,SCT095,0.00,0.00,VWS V14.01,2013-12-31 04:44:00,
2013-12-30 23:45:00,46.3,43.2,30.12,West,263,3.0,3.0,89,0.00,,CLR,0.00,0.00,VWS V15.00,2013-12-31 04:45:00,
2013-12-30 23:46:00,44.1,42.5,30.13,West,265,3.0,3.0,94,0.00,,SCT095,0.00,0.00,VWS V14.01,2013-12-31 04:46:00,
2013-12-30 23:50:00,46.2,43.1,30.12,SW,225,6.0,6.0,89,0.00,,CLR,0.00,0.00,VWS V15.00,2013-12-31 04:50:00,
2013-12-30 23:51:00,44.5,42.9,30.13,West,265,3.0,3.0,94,0.00,,SCT095,0.00,0.00,VWS V14.01,2013-12-31 04:51:00,
2013-12-30 23:55:00,46.2,43.1,30.12,West,263,3.0,3.0,89,0.00,,CLR,0.00,0.00,VWS V15.00,2013-12-31 04:55:00,
2013-12-30 23:56:00,45.0,43.1,30.14,WSW,245,2.0,2.0,93,0.00,,SCT095,0.00,0.00,VWS V14.01,2013-12-31 04:56:00,